.
WxDataArchive / Data Records for 2014-09-13
2014-09-12 September 2014 2014-09-14

Data Records for Saturday, 13 September 2014

Time	Temp	Chill	HIndex	Humid	Dewpt	 Wind 	HiWind	WindDir	Rain 	Barom
-----	----	-----	------	-----	-----	------	------	-------	-----	-----
00:00	55.7	55.7	55.7	85	51.3	0	1	90	0.00	30.158 
00:05	55.7	55.7	55.7	85	51.3	0	1	90	0.00	30.158 
00:10	55.7	55.7	55.7	85	51.3	0	0	---	0.00	30.158 
00:15	55.7	55.7	55.7	85	51.3	0	0	---	0.00	30.148 
00:20	55.7	55.7	55.7	85	51.3	0	0	---	0.00	30.148 
00:25	55.6	55.6	55.6	85	51.2	0	1	90	0.00	30.148 
00:30	55.6	55.6	55.6	85	51.2	0	0	---	0.00	30.146 
00:35	55.6	55.6	55.6	86	51.5	0	1	90	0.00	30.146 
00:40	55.6	55.6	55.6	86	51.5	0	0	---	0.00	30.146 
00:45	55.6	55.6	55.6	86	51.5	0	0	---	0.00	30.138 
00:50	55.6	55.6	55.6	86	51.5	0	1	90	0.00	30.138 
00:55	55.4	55.4	55.4	86	51.3	0	1	90	0.00	30.138 
01:00	55.4	55.4	55.4	86	51.3	0	1	90	0.00	30.144 
01:05	55.3	55.3	55.3	86	51.2	0	1	90	0.00	30.144 
01:10	55.3	55.3	55.3	86	51.2	0	1	90	0.00	30.144 
01:15	55.1	55.1	55.1	87	51.3	0	1	90	0.00	30.138 
01:20	54.8	54.8	54.8	87	51.0	0	1	90	0.00	30.138 
01:25	54.7	54.7	54.7	88	51.2	0	1	90	0.00	30.138 
01:30	54.5	54.5	54.5	88	51.0	0	1	90	0.00	30.141 
01:35	54.5	54.5	54.5	89	51.3	0	1	90	0.00	30.141 
01:40	54.5	54.5	54.5	90	51.6	0	3	90	0.00	30.141 
01:45	54.4	54.4	54.4	90	51.5	0	1	90	0.00	30.141 
01:50	54.2	54.2	54.2	91	51.6	0	3	90	0.00	30.141 
01:55	53.9	53.9	53.9	91	51.3	1	3	90	0.00	30.141 
02:00	53.6	53.6	53.6	91	51.0	0	2	315	0.00	30.140 
02:05	53.6	53.6	53.6	92	51.3	0	2	315	0.00	30.140 
02:10	53.5	53.5	53.5	92	51.2	0	2	315	0.00	30.140 
02:15	53.5	53.5	53.5	92	51.2	0	3	315	0.00	30.137 
02:20	53.3	53.3	53.3	92	51.0	0	2	315	0.00	30.137 
02:25	53.2	53.2	53.2	92	50.9	1	5	315	0.00	30.137 
02:30	52.8	52.8	52.8	92	50.5	2	5	315	0.00	30.139 
02:35	52.6	52.6	52.6	93	50.6	1	3	292	0.00	30.139 
02:40	52.6	52.6	52.6	93	50.6	0	3	292	0.00	30.139 
02:45	52.5	52.5	52.5	93	50.5	0	2	292	0.00	30.139 
02:50	52.5	52.5	52.5	93	50.5	0	2	292	0.01	30.139 
02:55	52.5	52.5	52.5	93	50.5	1	4	315	0.00	30.139 
03:00	52.2	52.2	52.2	93	50.2	1	4	315	0.00	30.137 
03:05	52.0	52.0	52.0	93	50.0	0	2	292	0.00	30.137 
03:10	52.0	52.0	52.0	93	50.0	0	1	292	0.00	30.137 
03:15	52.0	52.0	52.0	93	50.0	0	1	292	0.01	30.135 
03:20	51.9	51.9	51.9	93	49.9	1	3	292	0.00	30.135 
03:25	51.7	51.7	51.7	94	50.0	0	2	292	0.00	30.135 
03:30	51.7	51.7	51.7	94	50.0	0	2	292	0.01	30.139 
03:35	51.6	51.6	51.6	94	49.9	0	2	292	0.00	30.139 
03:40	51.4	51.4	51.4	94	49.7	0	2	292	0.01	30.139 
03:45	51.3	51.3	51.3	94	49.6	0	2	292	0.00	30.134 
03:50	51.3	51.3	51.3	94	49.6	1	3	292	0.00	30.134 
03:55	51.1	51.1	51.1	94	49.4	1	3	292	0.01	30.134 
04:00	51.1	51.1	51.1	94	49.4	0	3	292	0.00	30.131 
04:05	51.1	51.1	51.1	94	49.4	1	4	292	0.00	30.131 
04:10	51.1	51.1	51.1	94	49.4	1	3	292	0.00	30.131 
04:15	51.1	51.1	51.1	94	49.4	0	3	292	0.00	30.138 
04:20	51.1	51.1	51.1	94	49.4	0	3	292	0.00	30.138 
04:25	51.3	51.3	51.3	94	49.6	0	1	292	0.00	30.138 
04:30	51.3	51.3	51.3	94	49.6	0	3	292	0.00	30.143 
04:35	51.3	51.3	51.3	94	49.6	1	3	292	0.00	30.143 
04:40	51.3	51.3	51.3	94	49.6	1	3	292	0.00	30.143 
04:45	51.3	51.3	51.3	94	49.6	0	3	292	0.01	30.140 
04:50	51.1	51.1	51.1	94	49.4	1	4	292	0.00	30.140 
04:55	51.1	51.1	51.1	94	49.4	0	2	292	0.00	30.140 
05:00	51.1	51.1	51.1	94	49.4	0	2	292	0.00	30.141 
05:05	51.1	51.1	51.1	94	49.4	0	2	292	0.00	30.141 
05:10	51.0	51.0	51.0	94	49.3	1	3	292	0.00	30.141 
05:15	51.0	51.0	51.0	94	49.3	1	3	292	0.00	30.142 
05:20	50.8	50.8	50.8	94	49.1	0	3	292	0.00	30.142 
05:25	50.7	50.7	50.7	94	49.0	0	2	292	0.00	30.142 
05:30	50.7	50.7	50.7	94	49.0	1	3	292	0.00	30.140 
05:35	50.7	50.7	50.7	94	49.0	0	2	292	0.00	30.140 
05:40	50.7	50.7	50.7	94	49.0	0	1	292	0.00	30.140 
05:45	50.7	50.7	50.7	94	49.0	0	2	292	0.00	30.147 
05:50	50.7	50.7	50.7	94	49.0	1	3	292	0.00	30.147 
05:55	50.7	50.7	50.7	94	49.0	1	3	292	0.00	30.147 
06:00	50.7	50.7	50.7	94	49.0	1	4	292	0.00	30.152 
06:05	50.7	50.7	50.7	94	49.0	1	4	292	0.00	30.152 
06:10	50.7	50.7	50.7	94	49.0	1	4	292	0.00	30.152 
06:15	50.7	50.7	50.7	94	49.0	2	7	292	0.00	30.157 
06:20	50.5	50.5	50.5	94	48.8	1	4	292	0.00	30.157 
06:25	50.5	50.5	50.5	93	48.6	1	5	292	0.00	30.157 
06:30	50.5	50.5	50.5	93	48.6	1	4	270	0.00	30.166 
06:35	50.5	50.5	50.5	93	48.6	1	5	315	0.00	30.166 
06:40	50.7	50.7	50.7	93	48.7	1	4	270	0.00	30.166 
06:45	50.5	50.5	50.5	93	48.6	1	4	292	0.00	30.171 
06:50	50.7	50.7	50.7	93	48.7	1	3	270	0.00	30.171 
06:55	50.7	50.7	50.7	93	48.7	0	2	270	0.00	30.171 
07:00	50.7	50.7	50.7	93	48.7	1	4	270	0.00	30.176 
07:05	50.7	50.7	50.7	92	48.5	1	4	270	0.00	30.176 
07:10	50.7	50.7	50.7	92	48.5	1	4	292	0.00	30.176 
07:15	50.7	50.7	50.7	92	48.5	2	4	292	0.00	30.182 
07:20	50.7	50.7	50.7	92	48.5	1	4	292	0.00	30.182 
07:25	50.5	50.5	50.5	92	48.3	1	4	315	0.00	30.182 
07:30	50.5	50.5	50.5	91	48.0	0	3	270	0.00	30.187 
07:35	50.5	50.5	50.5	91	48.0	1	4	292	0.00	30.187 
07:40	50.5	50.5	50.5	91	48.0	1	4	292	0.00	30.187 
07:45	50.7	50.7	50.7	91	48.2	1	5	292	0.00	30.192 
07:50	50.8	50.8	50.8	91	48.3	0	4	292	0.00	30.192 
07:55	50.8	50.8	50.8	91	48.3	2	7	270	0.00	30.192 
08:00	50.7	50.7	50.7	91	48.2	1	4	270	0.00	30.197 
08:05	50.4	50.4	50.4	91	47.9	3	6	270	0.00	30.197 
08:10	50.2	50.2	50.2	91	47.7	2	4	270	0.00	30.197 
08:15	50.2	50.2	50.2	91	47.7	1	4	292	0.00	30.204 
08:20	50.1	50.1	50.1	91	47.6	2	6	270	0.00	30.204 
08:25	50.2	50.2	50.2	91	47.7	2	6	270	0.00	30.204 
08:30	50.2	50.2	50.2	90	47.4	2	6	270	0.00	30.207 
08:35	50.2	50.2	50.2	90	47.4	1	3	270	0.00	30.207 
08:40	50.4	50.4	50.4	90	47.6	1	4	270	0.00	30.207 
08:45	50.4	50.4	50.4	90	47.6	2	5	270	0.00	30.211 
08:50	50.5	50.5	50.5	90	47.7	2	7	270	0.00	30.211 
08:55	50.7	50.7	50.7	89	47.6	2	5	315	0.00	30.211 
09:00	50.8	50.8	50.8	89	47.7	1	4	315	0.00	30.216 
09:05	51.1	51.1	51.1	88	47.7	1	3	292	0.00	30.216 
09:10	51.3	51.3	51.3	88	47.9	2	4	292	0.00	30.216 
09:15	51.3	51.3	51.3	87	47.6	1	5	292	0.00	30.218 
09:20	51.3	51.3	51.3	86	47.3	3	6	292	0.00	30.218 
09:25	51.4	51.4	51.4	86	47.4	2	6	292	0.00	30.218 
09:30	51.7	51.7	51.7	86	47.6	1	3	270	0.00	30.223 
09:35	51.7	51.7	51.7	86	47.6	1	4	292	0.00	30.223 
09:40	51.6	51.6	51.6	86	47.5	3	6	270	0.00	30.223 
09:45	51.4	51.4	51.4	86	47.4	1	4	292	0.00	30.234 
09:50	51.6	51.6	51.6	87	47.9	2	4	292	0.00	30.234 
09:55	51.7	51.7	51.7	87	48.0	2	4	292	0.00	30.234 
10:00	52.0	52.0	52.0	86	47.9	3	6	270	0.00	30.235 
10:05	51.9	51.9	51.9	85	47.5	2	6	315	0.00	30.235 
10:10	51.9	51.9	51.9	86	47.8	1	4	315	0.00	30.235 
10:15	52.3	52.3	52.3	85	47.9	1	5	292	0.00	30.238 
10:20	52.6	52.6	52.6	84	47.9	1	4	315	0.00	30.238 
10:25	53.2	53.2	53.2	83	48.2	1	6	315	0.00	30.238 
10:30	53.5	53.5	53.5	79	47.1	3	7	292	0.00	30.242 
10:35	53.8	53.8	53.8	78	47.1	2	7	315	0.00	30.242 
10:40	53.6	53.6	53.6	76	46.2	2	6	292	0.00	30.242 
10:45	53.3	53.3	53.3	76	45.9	2	6	270	0.00	30.250 
10:50	53.1	53.1	53.1	77	46.1	2	7	315	0.00	30.250 
10:55	53.5	53.5	53.5	77	46.5	3	5	292	0.00	30.250 
11:00	54.2	54.2	54.2	74	46.1	3	7	292	0.00	30.249 
11:05	54.5	54.5	54.5	73	46.0	3	9	315	0.00	30.249 
11:10	55.0	55.0	55.0	73	46.5	2	5	270	0.00	30.249 
11:15	55.6	55.6	55.6	73	47.1	2	7	270	0.00	30.249 
11:20	55.4	55.4	55.4	71	46.2	2	6	270	0.00	30.249 
11:25	55.3	55.3	55.3	70	45.7	3	7	338	0.00	30.249 
11:30	55.6	55.6	55.6	68	45.2	4	7	292	0.00	30.252 
11:35	56.3	56.3	56.3	69	46.3	2	6	292	0.00	30.252 
11:40	56.0	56.0	56.0	67	45.2	3	7	270	0.00	30.252 
11:45	55.7	55.7	55.7	65	44.1	3	8	292	0.00	30.257 
11:50	56.3	56.3	56.3	62	43.4	3	9	292	0.00	30.257 
11:55	56.3	56.3	56.3	62	43.4	3	6	292	0.00	30.257 
12:00	56.9	56.9	56.9	62	44.0	2	5	292	0.00	30.262 
12:05	57.2	57.2	57.2	59	43.0	3	6	292	0.00	30.262 
12:10	57.2	57.2	57.2	58	42.6	2	5	292	0.00	30.262 
12:15	57.5	57.5	57.5	57	42.4	2	7	315	0.00	30.263 
12:20	57.5	57.5	57.5	61	44.2	3	6	338	0.00	30.263 
12:25	57.6	57.6	57.6	58	42.9	2	5	315	0.00	30.263 
12:30	58.1	58.1	58.1	58	43.4	1	4	45	0.00	30.264 
12:35	58.3	58.3	58.3	56	42.7	2	7	315	0.00	30.264 
12:40	58.4	58.4	58.4	58	43.7	2	4	292	0.00	30.264 
12:45	58.0	58.0	58.0	57	42.9	2	6	292	0.00	30.266 
12:50	58.3	58.3	58.3	58	43.6	2	4	315	0.00	30.266 
12:55	58.1	58.1	58.1	56	42.5	2	6	270	0.00	30.266 
13:00	57.6	57.6	57.6	55	41.6	3	6	315	0.00	30.273 
13:05	58.0	58.0	58.0	57	42.9	2	6	315	0.00	30.273 
13:10	58.6	58.6	58.6	54	42.0	2	5	292	0.00	30.273 
13:15	58.9	58.9	58.9	56	43.2	2	5	315	0.00	30.272 
13:20	58.4	58.4	58.4	55	42.3	3	7	270	0.00	30.272 
13:25	58.3	58.3	58.3	58	43.6	3	5	270	0.00	30.272 
13:30	58.7	58.7	58.7	54	42.1	3	6	315	0.00	30.276 
13:35	59.3	59.3	59.3	57	44.1	1	4	315	0.00	30.276 
13:40	59.6	59.6	59.6	54	42.9	2	6	315	0.00	30.276 
13:45	59.0	59.0	59.0	55	42.9	2	6	292	0.00	30.276 
13:50	58.4	58.4	58.4	52	40.8	3	6	338	0.00	30.276 
13:55	58.3	58.3	58.3	55	42.2	2	5	292	0.00	30.276 
14:00	59.0	59.0	59.0	55	42.9	1	5	270	0.00	30.277 
14:05	59.3	59.3	59.3	53	42.2	1	7	315	0.00	30.277 
14:10	59.5	59.5	59.5	54	42.8	1	3	0	0.00	30.277 
14:15	59.3	59.3	59.3	53	42.2	1	4	68	0.00	30.274 
14:20	59.0	59.0	59.0	53	41.9	1	4	0	0.00	30.274 
14:25	58.4	58.4	58.4	53	41.3	1	3	0	0.00	30.274 
14:30	58.3	58.3	58.3	55	42.2	1	4	292	0.00	30.269 
14:35	58.6	58.6	58.6	54	42.0	1	4	292	0.00	30.269 
14:40	58.7	58.7	58.7	55	42.6	1	3	292	0.00	30.269 
14:45	58.9	58.9	58.9	53	41.8	1	5	338	0.00	30.281 
14:50	59.0	59.0	59.0	52	41.4	1	3	338	0.00	30.281 
14:55	58.6	58.6	58.6	54	42.0	1	4	315	0.00	30.281 
15:00	58.3	58.3	58.3	54	41.7	1	3	315	0.00	30.275 
15:05	59.0	59.0	59.0	53	41.9	1	3	315	0.00	30.275 
15:10	59.5	59.5	59.5	53	42.4	1	3	292	0.00	30.275 
15:15	59.3	59.3	59.3	54	42.7	1	3	292	0.00	30.272 
15:20	59.2	59.2	59.2	56	43.5	1	3	292	0.00	30.272 
15:25	58.9	58.9	58.9	56	43.2	1	4	292	0.00	30.272 
15:30	59.2	59.2	59.2	56	43.5	2	4	292	0.00	30.271 
15:35	59.8	59.8	59.8	53	42.6	1	6	292	0.00	30.271 
15:40	59.5	59.5	59.5	54	42.8	2	5	292	0.00	30.271 
15:45	59.5	59.5	59.5	54	42.8	2	4	315	0.00	30.276 
15:50	59.6	59.6	59.6	54	42.9	1	3	315	0.00	30.276 
15:55	59.6	59.6	59.6	53	42.4	1	3	315	0.00	30.276 
16:00	60.2	60.2	60.2	55	44.0	1	3	315	0.00	30.273 
16:05	60.7	60.7	60.7	53	43.5	1	4	315	0.00	30.273 
16:10	60.9	60.9	60.9	49	41.6	1	6	315	0.00	30.273 
16:15	60.4	60.4	60.4	51	42.2	2	5	292	0.00	30.278 
16:20	60.5	60.5	60.5	54	43.8	1	5	315	0.00	30.278 
16:25	60.4	60.4	60.4	52	42.7	2	4	315	0.00	30.278 
16:30	59.9	59.9	59.9	53	42.7	2	4	315	0.00	30.277 
16:35	59.9	59.9	59.9	56	44.2	1	3	292	0.00	30.277 
16:40	60.2	60.2	60.2	52	42.5	1	5	292	0.00	30.277 
16:45	60.5	60.5	60.5	53	43.3	1	3	270	0.00	30.273 
16:50	60.5	60.5	60.5	53	43.3	1	4	270	0.00	30.273 
16:55	60.1	60.1	60.1	52	42.4	1	3	270	0.00	30.273 
17:00	59.6	59.6	59.6	54	42.9	1	4	270	0.00	30.275 
17:05	59.5	59.5	59.5	55	43.3	0	3	270	0.00	30.275 
17:10	59.2	59.2	59.2	54	42.6	1	3	270	0.00	30.275 
17:15	59.0	59.0	59.0	54	42.4	0	2	270	0.00	30.274 
17:20	59.2	59.2	59.2	54	42.6	0	2	270	0.00	30.274 
17:25	59.2	59.2	59.2	55	43.0	0	2	270	0.00	30.274 
17:30	59.2	59.2	59.2	55	43.0	0	2	270	0.00	30.276 
17:35	59.0	59.0	59.0	54	42.4	0	1	270	0.00	30.276 
17:40	58.7	58.7	58.7	54	42.1	0	1	270	0.00	30.276 
17:45	58.6	58.6	58.6	54	42.0	0	1	270	0.00	30.275 
17:50	58.6	58.6	58.6	56	43.0	0	1	270	0.00	30.275 
17:55	58.7	58.7	58.7	58	44.0	0	1	270	0.00	30.275 
18:00	59.3	59.3	59.3	57	44.1	0	1	270	0.00	30.274 
18:05	60.1	60.1	60.1	55	43.9	1	4	270	0.00	30.274 
18:10	60.5	60.5	60.5	53	43.3	1	4	270	0.00	30.274 
18:15	60.5	60.5	60.5	51	42.3	1	3	270	0.00	30.274 
18:20	60.1	60.1	60.1	51	41.9	0	1	270	0.00	30.274 
18:25	59.6	59.6	59.6	54	42.9	0	1	270	0.00	30.274 
18:30	59.2	59.2	59.2	55	43.0	0	1	270	0.00	30.279 
18:35	59.0	59.0	59.0	55	42.9	0	0	---	0.00	30.279 
18:40	59.0	59.0	59.0	55	42.9	0	1	270	0.00	30.279 
18:45	59.0	59.0	59.0	57	43.8	0	1	270	0.00	30.281 
18:50	58.9	58.9	58.9	57	43.7	0	1	270	0.00	30.281 
18:55	58.7	58.7	58.7	58	44.0	0	1	270	0.00	30.281 
19:00	58.6	58.6	58.6	59	44.3	0	1	270	0.00	30.282 
19:05	58.4	58.4	58.4	60	44.6	0	1	270	0.00	30.282 
19:10	58.4	58.4	58.4	62	45.4	0	0	---	0.00	30.282 
19:15	58.3	58.3	58.3	62	45.3	0	0	---	0.00	30.282 
19:20	58.1	58.1	58.1	62	45.1	0	0	---	0.00	30.282 
19:25	57.6	57.6	57.6	63	45.1	0	0	---	0.00	30.282 
19:30	57.3	57.3	57.3	65	45.6	0	0	---	0.00	30.283 
19:35	57.0	57.0	57.0	65	45.4	0	0	---	0.00	30.283 
19:40	56.7	56.7	56.7	65	45.1	0	0	---	0.00	30.283 
19:45	56.5	56.5	56.5	66	45.3	0	0	---	0.00	30.285 
19:50	56.2	56.2	56.2	66	45.0	0	0	---	0.00	30.285 
19:55	55.9	55.9	55.9	68	45.5	0	0	---	0.00	30.285 
20:00	55.4	55.4	55.4	69	45.4	0	0	---	0.00	30.290 
20:05	55.0	55.0	55.0	69	45.0	0	0	---	0.00	30.290 
20:10	54.7	54.7	54.7	69	44.7	0	0	---	0.00	30.290 
20:15	54.5	54.5	54.5	69	44.5	0	0	---	0.00	30.292 
20:20	54.4	54.4	54.4	70	44.8	0	0	---	0.00	30.292 
20:25	54.1	54.1	54.1	71	44.9	0	0	---	0.00	30.292 
20:30	53.8	53.8	53.8	71	44.6	0	0	---	0.00	30.294 
20:35	53.6	53.6	53.6	72	44.8	0	0	---	0.00	30.294 
20:40	53.3	53.3	53.3	74	45.2	0	0	---	0.00	30.294 
20:45	53.1	53.1	53.1	74	45.0	0	0	---	0.00	30.297 
20:50	52.8	52.8	52.8	75	45.1	0	0	---	0.00	30.297 
20:55	52.3	52.3	52.3	77	45.3	0	0	---	0.00	30.297 
21:00	52.2	52.2	52.2	78	45.5	0	0	---	0.00	30.301 
21:05	51.9	51.9	51.9	79	45.6	0	0	---	0.00	30.301 
21:10	51.6	51.6	51.6	80	45.6	0	0	---	0.00	30.301 
21:15	51.3	51.3	51.3	80	45.3	0	0	---	0.00	30.301 
21:20	51.1	51.1	51.1	81	45.5	0	0	---	0.00	30.301 
21:25	50.8	50.8	50.8	82	45.5	0	0	---	0.00	30.301 
21:30	50.7	50.7	50.7	82	45.4	0	0	---	0.00	30.304 
21:35	50.4	50.4	50.4	83	45.4	0	0	---	0.00	30.304 
21:40	50.2	50.2	50.2	84	45.6	0	0	---	0.00	30.304 
21:45	49.9	49.9	49.9	84	45.3	0	0	---	0.00	30.304 
21:50	49.8	49.8	49.8	84	45.2	0	0	---	0.00	30.304 
21:55	49.5	49.5	49.5	85	45.2	0	0	---	0.00	30.304 
22:00	49.4	49.4	49.4	85	45.1	0	0	---	0.00	30.310 
22:05	49.1	49.1	49.1	86	45.1	0	0	---	0.00	30.310 
22:10	48.9	48.9	48.9	86	44.9	0	0	---	0.00	30.310 
22:15	48.8	48.8	48.8	87	45.1	0	0	---	0.00	30.315 
22:20	48.6	48.6	48.6	87	44.9	0	0	---	0.00	30.315 
22:25	48.5	48.5	48.5	88	45.1	0	0	---	0.00	30.315 
22:30	48.3	48.3	48.3	88	44.9	0	0	---	0.00	30.314 
22:35	48.2	48.2	48.2	88	44.8	0	0	---	0.00	30.314 
22:40	48.0	48.0	48.0	88	44.6	0	0	---	0.00	30.314 
22:45	47.9	47.9	47.9	89	44.8	0	0	---	0.00	30.315 
22:50	47.7	47.7	47.7	89	44.6	0	0	---	0.00	30.315 
22:55	47.7	47.7	47.7	89	44.6	0	0	---	0.00	30.315 
23:00	47.6	47.6	47.6	89	44.5	0	0	---	0.00	30.317 
23:05	47.4	47.4	47.4	89	44.3	0	0	---	0.00	30.317 
23:10	47.3	47.3	47.3	90	44.5	0	0	---	0.00	30.317 
23:15	47.3	47.3	47.3	90	44.5	0	0	---	0.00	30.317 
23:20	47.1	47.1	47.1	90	44.3	0	0	---	0.00	30.317 
23:25	47.0	47.0	47.0	90	44.2	0	0	---	0.00	30.317 
23:30	46.8	46.8	46.8	90	44.0	0	0	---	0.00	30.317 
23:35	46.8	46.8	46.8	91	44.3	0	0	---	0.00	30.317 
23:40	46.7	46.7	46.7	91	44.2	0	0	---	0.00	30.317 
23:45	46.5	46.5	46.5	91	44.0	0	0	---	0.00	30.321 
23:50	46.5	46.5	46.5	91	44.0	0	0	---	0.00	30.321 
23:55	46.4	46.4	46.4	91	43.9	0	0	---	0.00	30.321 

CoCoRaHS
IN-AL-39
A2 Web Hosting
Creative Commons License
GoDaddy
search engine by freefind advanced

loaded 2018-11-13 17:37:41 • last modified 2010-11-18 10:43:29
Privacy PolicyDisclaimer
• wx.awcolley.com is powered by PmWiki v.2002016 •
• all content (unless otherwise noted) © 2018 A W Colley